sensor_id;sensor_type;location;lat;lon;timestamp;pressure;altitude;pressure_sealevel;temperature;humidity
16664;BME280;8445;51.270;9.434;2023-03-25T00:01:54;98289.59;;;7.54;63.25
16664;BME280;8445;51.270;9.434;2023-03-25T00:04:23;98302.38;;;7.59;64.17
16664;BME280;8445;51.270;9.434;2023-03-25T00:06:54;98298.41;;;7.65;64.42
16664;BME280;8445;51.270;9.434;2023-03-25T00:09:21;98298.34;;;7.76;64.27
16664;BME280;8445;51.270;9.434;2023-03-25T00:11:52;98290.66;;;7.84;64.08
16664;BME280;8445;51.270;9.434;2023-03-25T00:14:17;98303.31;;;7.91;64.32
16664;BME280;8445;51.270;9.434;2023-03-25T00:16:46;98287.28;;;7.94;64.08
16664;BME280;8445;51.270;9.434;2023-03-25T00:19:17;98293.00;;;7.99;64.01
16664;BME280;8445;51.270;9.434;2023-03-25T00:21:43;98285.41;;;8.06;64.56
16664;BME280;8445;51.270;9.434;2023-03-25T00:24:11;98285.59;;;8.14;64.07
16664;BME280;8445;51.270;9.434;2023-03-25T00:26:39;98284.78;;;8.13;64.91
16664;BME280;8445;51.270;9.434;2023-03-25T00:29:08;98275.72;;;8.06;65.32
16664;BME280;8445;51.270;9.434;2023-03-25T00:31:36;98274.75;;;8.07;64.70
16664;BME280;8445;51.270;9.434;2023-03-25T00:34:07;98273.59;;;8.00;64.45
16664;BME280;8445;51.270;9.434;2023-03-25T00:36:33;98275.53;;;7.98;64.88
16664;BME280;8445;51.270;9.434;2023-03-25T00:39:04;98282.56;;;7.97;64.52
16664;BME280;8445;51.270;9.434;2023-03-25T00:41:34;98269.03;;;8.02;65.28
16664;BME280;8445;51.270;9.434;2023-03-25T00:44:02;98279.31;;;8.05;64.94
16664;BME280;8445;51.270;9.434;2023-03-25T00:46:35;98277.84;;;8.12;65.97
16664;BME280;8445;51.270;9.434;2023-03-25T00:49:00;98283.31;;;8.21;64.78
16664;BME280;8445;51.270;9.434;2023-03-25T00:51:32;98278.22;;;8.29;65.13
16664;BME280;8445;51.270;9.434;2023-03-25T00:54:01;98277.69;;;8.35;65.98
16664;BME280;8445;51.270;9.434;2023-03-25T00:56:35;98280.66;;;8.42;65.09
16664;BME280;8445;51.270;9.434;2023-03-25T00:59:09;98281.72;;;8.51;66.43
16664;BME280;8445;51.270;9.434;2023-03-25T01:01:40;98269.69;;;8.58;64.98
16664;BME280;8445;51.270;9.434;2023-03-25T01:04:06;98272.75;;;8.63;64.46
16664;BME280;8445;51.270;9.434;2023-03-25T01:06:40;98266.91;;;8.59;65.09
16664;BME280;8445;51.270;9.434;2023-03-25T01:09:12;98270.13;;;8.63;64.59
16664;BME280;8445;51.270;9.434;2023-03-25T01:11:44;98273.47;;;8.65;65.02
16664;BME280;8445;51.270;9.434;2023-03-25T01:14:15;98266.00;;;8.70;65.24
16664;BME280;8445;51.270;9.434;2023-03-25T01:16:45;98271.00;;;8.73;64.88
16664;BME280;8445;51.270;9.434;2023-03-25T01:19:12;98272.41;;;8.78;64.94
16664;BME280;8445;51.270;9.434;2023-03-25T01:21:40;98266.16;;;8.79;65.87
16664;BME280;8445;51.270;9.434;2023-03-25T01:24:14;98254.38;;;8.83;64.94
16664;BME280;8445;51.270;9.434;2023-03-25T01:26:43;98262.00;;;8.86;64.75
16664;BME280;8445;51.270;9.434;2023-03-25T01:29:18;98267.16;;;8.87;65.31
16664;BME280;8445;51.270;9.434;2023-03-25T01:31:44;98271.31;;;8.90;65.29
16664;BME280;8445;51.270;9.434;2023-03-25T01:34:10;98279.94;;;8.92;64.96
16664;BME280;8445;51.270;9.434;2023-03-25T01:36:36;98262.19;;;8.94;64.81
16664;BME280;8445;51.270;9.434;2023-03-25T01:39:07;98257.44;;;8.88;64.95
16664;BME280;8445;51.270;9.434;2023-03-25T01:41:34;98270.47;;;8.80;64.66
16664;BME280;8445;51.270;9.434;2023-03-25T01:45:02;98254.34;;;8.73;66.26
16664;BME280;8445;51.270;9.434;2023-03-25T01:46:58;98252.72;;;8.82;65.12
16664;BME280;8445;51.270;9.434;2023-03-25T01:49:32;98262.56;;;8.80;66.70
16664;BME280;8445;51.270;9.434;2023-03-25T01:52:13;98267.97;;;8.88;65.25
16664;BME280;8445;51.270;9.434;2023-03-25T01:54:39;98258.41;;;8.87;65.37
16664;BME280;8445;51.270;9.434;2023-03-25T01:57:07;98256.09;;;8.94;65.31
16664;BME280;8445;51.270;9.434;2023-03-25T01:59:35;98264.44;;;8.99;65.24
16664;BME280;8445;51.270;9.434;2023-03-25T02:02:03;98258.31;;;8.98;65.56
16664;BME280;8445;51.270;9.434;2023-03-25T02:04:36;98263.47;;;9.00;65.63
16664;BME280;8445;51.270;9.434;2023-03-25T02:07:12;98256.38;;;9.00;66.34
16664;BME280;8445;51.270;9.434;2023-03-25T02:09:41;98258.19;;;9.00;65.77
16664;BME280;8445;51.270;9.434;2023-03-25T02:12:07;98255.41;;;9.01;65.36
16664;BME280;8445;51.270;9.434;2023-03-25T02:14:34;98245.53;;;9.03;65.43
16664;BME280;8445;51.270;9.434;2023-03-25T02:33:39;98247.16;;;8.23;68.61
16664;BME280;8445;51.270;9.434;2023-03-25T02:38:51;98268.69;;;7.95;65.56
16664;BME280;8445;51.270;9.434;2023-03-25T02:44:03;98270.69;;;7.82;66.18
16664;BME280;8445;51.270;9.434;2023-03-25T02:46:32;98262.56;;;7.85;65.91
16664;BME280;8445;51.270;9.434;2023-03-25T02:49:13;98271.22;;;7.97;68.63
16664;BME280;8445;51.270;9.434;2023-03-25T02:52:09;98264.22;;;8.07;67.11
16664;BME280;8445;51.270;9.434;2023-03-25T02:54:44;98259.59;;;8.21;65.95
16664;BME280;8445;51.270;9.434;2023-03-25T02:57:16;98252.72;;;8.29;65.73
16664;BME280;8445;51.270;9.434;2023-03-25T02:59:45;98253.53;;;8.30;65.61
16664;BME280;8445;51.270;9.434;2023-03-25T03:02:15;98245.19;;;8.25;65.49
16664;BME280;8445;51.270;9.434;2023-03-25T03:04:50;98248.81;;;8.24;65.49
16664;BME280;8445;51.270;9.434;2023-03-25T03:09:55;98248.53;;;8.27;65.92
16664;BME280;8445;51.270;9.434;2023-03-25T03:12:35;98252.47;;;8.33;65.62
16664;BME280;8445;51.270;9.434;2023-03-25T03:15:18;98249.16;;;8.40;65.78
16664;BME280;8445;51.270;9.434;2023-03-25T03:18:17;98242.53;;;8.46;66.17
16664;BME280;8445;51.270;9.434;2023-03-25T03:21:11;98242.31;;;8.49;67.26
16664;BME280;8445;51.270;9.434;2023-03-25T03:23:50;98243.13;;;8.50;68.53
16664;BME280;8445;51.270;9.434;2023-03-25T03:26:39;98240.78;;;8.56;65.61
16664;BME280;8445;51.270;9.434;2023-03-25T03:29:25;98234.72;;;8.56;67.04
16664;BME280;8445;51.270;9.434;2023-03-25T03:32:01;98238.03;;;8.58;67.30
16664;BME280;8445;51.270;9.434;2023-03-25T03:34:48;98241.50;;;8.58;66.79
16664;BME280;8445;51.270;9.434;2023-03-25T03:37:23;98254.38;;;8.52;67.21
16664;BME280;8445;51.270;9.434;2023-03-25T03:39:51;98245.38;;;8.54;66.06
16664;BME280;8445;51.270;9.434;2023-03-25T03:44:55;98266.13;;;8.48;67.00
16664;BME280;8445;51.270;9.434;2023-03-25T03:47:37;98261.38;;;8.41;68.07
16664;BME280;8445;51.270;9.434;2023-03-25T03:50:18;98269.09;;;8.33;68.52
16664;BME280;8445;51.270;9.434;2023-03-25T03:53:02;98267.63;;;8.19;70.78
16664;BME280;8445;51.270;9.434;2023-03-25T03:55:38;98269.00;;;8.13;68.35
16664;BME280;8445;51.270;9.434;2023-03-25T03:58:17;98275.47;;;8.09;67.42
16664;BME280;8445;51.270;9.434;2023-03-25T04:01:02;98268.91;;;8.04;67.90
16664;BME280;8445;51.270;9.434;2023-03-25T04:04:04;98268.59;;;7.97;67.98
16664;BME280;8445;51.270;9.434;2023-03-25T04:06:35;98270.69;;;7.82;68.09
16664;BME280;8445;51.270;9.434;2023-03-25T04:09:23;98267.00;;;7.73;68.63
16664;BME280;8445;51.270;9.434;2023-03-25T04:12:23;98264.44;;;7.62;67.81
16664;BME280;8445;51.270;9.434;2023-03-25T04:14:49;98266.63;;;7.56;67.78
16664;BME280;8445;51.270;9.434;2023-03-25T04:17:17;98263.03;;;7.57;67.36
16664;BME280;8445;51.270;9.434;2023-03-25T04:19:42;98263.84;;;7.58;67.52
16664;BME280;8445;51.270;9.434;2023-03-25T04:22:18;98270.53;;;7.62;68.48
16664;BME280;8445;51.270;9.434;2023-03-25T04:24:45;98265.84;;;7.66;67.57
16664;BME280;8445;51.270;9.434;2023-03-25T04:27:17;98271.81;;;7.68;67.67
16664;BME280;8445;51.270;9.434;2023-03-25T04:29:46;98273.38;;;7.70;68.38
16664;BME280;8445;51.270;9.434;2023-03-25T04:32:13;98269.53;;;7.75;68.54
16664;BME280;8445;51.270;9.434;2023-03-25T04:34:39;98260.53;;;7.77;68.21
16664;BME280;8445;51.270;9.434;2023-03-25T04:37:04;98267.59;;;7.77;68.67
16664;BME280;8445;51.270;9.434;2023-03-25T04:39:33;98259.72;;;7.77;68.20
16664;BME280;8445;51.270;9.434;2023-03-25T04:42:01;98261.25;;;7.79;67.68
16664;BME280;8445;51.270;9.434;2023-03-25T04:44:34;98266.50;;;7.79;68.35
16664;BME280;8445;51.270;9.434;2023-03-25T04:47:04;98272.47;;;7.81;67.95
16664;BME280;8445;51.270;9.434;2023-03-25T04:49:31;98266.16;;;7.84;67.98
16664;BME280;8445;51.270;9.434;2023-03-25T04:52:00;98269.34;;;7.88;67.96
16664;BME280;8445;51.270;9.434;2023-03-25T04:54:35;98276.03;;;7.92;68.72
16664;BME280;8445;51.270;9.434;2023-03-25T04:57:05;98282.00;;;7.94;67.95
16664;BME280;8445;51.270;9.434;2023-03-25T04:59:36;98299.47;;;7.95;67.51
16664;BME280;8445;51.270;9.434;2023-03-25T05:02:03;98310.97;;;7.94;68.32
16664;BME280;8445;51.270;9.434;2023-03-25T05:04:38;98321.66;;;7.48;86.22
16664;BME280;8445;51.270;9.434;2023-03-25T05:07:06;98323.75;;;7.22;79.90
16664;BME280;8445;51.270;9.434;2023-03-25T05:09:32;98311.06;;;6.93;75.98
16664;BME280;8445;51.270;9.434;2023-03-25T05:11:58;98308.81;;;6.65;76.11
16664;BME280;8445;51.270;9.434;2023-03-25T05:14:23;98311.41;;;6.43;75.72
16664;BME280;8445;51.270;9.434;2023-03-25T05:16:49;98310.03;;;6.26;77.53
16664;BME280;8445;51.270;9.434;2023-03-25T05:19:15;98307.41;;;6.14;76.28
16664;BME280;8445;51.270;9.434;2023-03-25T05:21:43;98293.16;;;6.05;75.68
16664;BME280;8445;51.270;9.434;2023-03-25T05:24:11;98280.03;;;6.05;77.38
16664;BME280;8445;51.270;9.434;2023-03-25T05:26:39;98257.59;;;6.01;76.62
16664;BME280;8445;51.270;9.434;2023-03-25T05:29:08;98289.94;;;6.02;77.28
16664;BME280;8445;51.270;9.434;2023-03-25T05:31:34;98279.31;;;6.03;75.12
16664;BME280;8445;51.270;9.434;2023-03-25T05:34:00;98280.91;;;6.06;75.28
16664;BME280;8445;51.270;9.434;2023-03-25T05:36:30;98278.13;;;6.07;75.38
16664;BME280;8445;51.270;9.434;2023-03-25T05:38:56;98295.56;;;6.08;73.96
16664;BME280;8445;51.270;9.434;2023-03-25T05:41:22;98292.84;;;6.10;73.87
16664;BME280;8445;51.270;9.434;2023-03-25T05:43:58;98293.66;;;6.11;73.00
16664;BME280;8445;51.270;9.434;2023-03-25T05:46:27;98286.97;;;6.06;72.84
16664;BME280;8445;51.270;9.434;2023-03-25T05:49:01;98302.41;;;5.98;72.79
16664;BME280;8445;51.270;9.434;2023-03-25T05:51:29;98302.88;;;5.92;72.64
16664;BME280;8445;51.270;9.434;2023-03-25T05:53:58;98301.44;;;5.88;73.77
16664;BME280;8445;51.270;9.434;2023-03-25T05:56:26;98316.47;;;5.86;72.49
16664;BME280;8445;51.270;9.434;2023-03-25T05:58:51;98311.44;;;5.83;73.41
16664;BME280;8445;51.270;9.434;2023-03-25T06:01:19;98316.91;;;5.79;72.75
16664;BME280;8445;51.270;9.434;2023-03-25T06:03:57;98311.25;;;5.73;73.47
16664;BME280;8445;51.270;9.434;2023-03-25T06:06:29;98305.19;;;5.72;72.85
16664;BME280;8445;51.270;9.434;2023-03-25T06:08:56;98319.25;;;5.71;72.42
16664;BME280;8445;51.270;9.434;2023-03-25T06:11:22;98320.94;;;5.72;73.09
16664;BME280;8445;51.270;9.434;2023-03-25T06:13:48;98316.47;;;5.86;72.53
16664;BME280;8445;51.270;9.434;2023-03-25T06:16:24;98322.09;;;5.92;72.59
16664;BME280;8445;51.270;9.434;2023-03-25T06:18:53;98330.34;;;5.99;73.38
16664;BME280;8445;51.270;9.434;2023-03-25T06:21:29;98324.94;;;6.14;75.17
16664;BME280;8445;51.270;9.434;2023-03-25T06:23:58;98317.38;;;6.33;74.12
16664;BME280;8445;51.270;9.434;2023-03-25T06:26:30;98327.56;;;6.61;73.58
16664;BME280;8445;51.270;9.434;2023-03-25T06:28:57;98324.34;;;6.91;73.85
16664;BME280;8445;51.270;9.434;2023-03-25T06:31:26;98322.53;;;7.15;73.24
16664;BME280;8445;51.270;9.434;2023-03-25T06:33:53;98319.63;;;7.40;73.43
16664;BME280;8445;51.270;9.434;2023-03-25T06:36:18;98328.81;;;7.57;73.57
16664;BME280;8445;51.270;9.434;2023-03-25T06:38:50;98325.94;;;7.61;73.64
16664;BME280;8445;51.270;9.434;2023-03-25T06:41:19;98319.00;;;7.60;73.66
16664;BME280;8445;51.270;9.434;2023-03-25T06:43:51;98309.69;;;7.55;73.41
16664;BME280;8445;51.270;9.434;2023-03-25T06:46:36;98329.28;;;7.63;73.88
16664;BME280;8445;51.270;9.434;2023-03-25T06:49:12;98320.72;;;7.82;74.38
16664;BME280;8445;51.270;9.434;2023-03-25T06:51:37;98323.75;;;7.98;74.07
16664;BME280;8445;51.270;9.434;2023-03-25T06:54:03;98310.47;;;8.00;73.50
16664;BME280;8445;51.270;9.434;2023-03-25T06:56:28;98318.16;;;7.92;73.81
16664;BME280;8445;51.270;9.434;2023-03-25T06:58:54;98333.19;;;7.80;73.19
16664;BME280;8445;51.270;9.434;2023-03-25T07:01:20;98330.00;;;7.65;73.47
16664;BME280;8445;51.270;9.434;2023-03-25T07:03:45;98326.75;;;7.61;73.72
16664;BME280;8445;51.270;9.434;2023-03-25T07:06:20;98330.63;;;7.90;74.83
16664;BME280;8445;51.270;9.434;2023-03-25T07:08:46;98329.69;;;8.33;75.40
16664;BME280;8445;51.270;9.434;2023-03-25T07:11:14;98323.06;;;8.81;75.28
16664;BME280;8445;51.270;9.434;2023-03-25T07:13:40;98322.75;;;9.05;74.38
16664;BME280;8445;51.270;9.434;2023-03-25T07:16:07;98331.34;;;8.98;73.81
16664;BME280;8445;51.270;9.434;2023-03-25T07:18:35;98323.09;;;8.91;74.05
16664;BME280;8445;51.270;9.434;2023-03-25T07:21:01;98311.31;;;8.95;74.08
16664;BME280;8445;51.270;9.434;2023-03-25T07:23:29;98317.91;;;9.11;74.55
16664;BME280;8445;51.270;9.434;2023-03-25T07:25:55;98315.59;;;9.27;74.81
16664;BME280;8445;51.270;9.434;2023-03-25T07:28:21;98309.00;;;9.53;75.31
16664;BME280;8445;51.270;9.434;2023-03-25T07:30:47;98313.75;;;9.88;75.28
16664;BME280;8445;51.270;9.434;2023-03-25T07:33:13;98312.34;;;10.23;75.47
16664;BME280;8445;51.270;9.434;2023-03-25T07:35:39;98315.94;;;10.52;74.52
16664;BME280;8445;51.270;9.434;2023-03-25T07:38:05;98310.97;;;10.87;73.73
16664;BME280;8445;51.270;9.434;2023-03-25T07:40:31;98314.22;;;11.08;73.13
16664;BME280;8445;51.270;9.434;2023-03-25T07:42:57;98310.22;;;11.04;72.31
16664;BME280;8445;51.270;9.434;2023-03-25T07:45:52;98313.03;;;10.93;72.45
16664;BME280;8445;51.270;9.434;2023-03-25T07:48:18;98306.38;;;10.89;72.53
16664;BME280;8445;51.270;9.434;2023-03-25T07:50:44;98314.25;;;10.98;73.23
16664;BME280;8445;51.270;9.434;2023-03-25T07:53:10;98305.22;;;11.01;73.05
16664;BME280;8445;51.270;9.434;2023-03-25T07:55:36;98304.91;;;11.04;73.44
16664;BME280;8445;51.270;9.434;2023-03-25T07:58:02;98298.63;;;11.33;73.93
16664;BME280;8445;51.270;9.434;2023-03-25T08:00:28;98300.47;;;11.51;72.63
16664;BME280;8445;51.270;9.434;2023-03-25T08:02:54;98305.25;;;11.47;72.48
16664;BME280;8445;51.270;9.434;2023-03-25T08:05:20;98309.28;;;11.69;73.70
16664;BME280;8445;51.270;9.434;2023-03-25T08:07:47;98314.63;;;11.78;73.11
16664;BME280;8445;51.270;9.434;2023-03-25T08:10:13;98307.44;;;11.88;72.65
16664;BME280;8445;51.270;9.434;2023-03-25T08:12:40;98314.81;;;12.12;72.43
16664;BME280;8445;51.270;9.434;2023-03-25T08:15:06;98320.88;;;12.23;71.14
16664;BME280;8445;51.270;9.434;2023-03-25T08:17:32;98309.78;;;12.01;71.10
16664;BME280;8445;51.270;9.434;2023-03-25T08:19:58;98310.84;;;11.98;70.99
16664;BME280;8445;51.270;9.434;2023-03-25T08:22:25;98312.22;;;11.84;70.47
16664;BME280;8445;51.270;9.434;2023-03-25T08:24:51;98322.38;;;11.71;70.59
16664;BME280;8445;51.270;9.434;2023-03-25T08:27:17;98319.91;;;11.60;70.40
16664;BME280;8445;51.270;9.434;2023-03-25T08:29:43;98307.63;;;11.68;70.74
16664;BME280;8445;51.270;9.434;2023-03-25T08:32:09;98308.59;;;11.85;70.72
16664;BME280;8445;51.270;9.434;2023-03-25T08:34:35;98300.50;;;12.23;71.21
16664;BME280;8445;51.270;9.434;2023-03-25T08:37:04;98311.25;;;12.74;70.59
16664;BME280;8445;51.270;9.434;2023-03-25T08:39:31;98307.22;;;12.97;69.51
16664;BME280;8445;51.270;9.434;2023-03-25T08:42:07;98297.66;;;13.04;69.08
16664;BME280;8445;51.270;9.434;2023-03-25T08:44:32;98308.59;;;13.01;68.77
16664;BME280;8445;51.270;9.434;2023-03-25T08:46:58;98310.72;;;12.97;68.18
16664;BME280;8445;51.270;9.434;2023-03-25T08:49:23;98301.38;;;13.19;69.00
16664;BME280;8445;51.270;9.434;2023-03-25T08:51:49;98306.34;;;13.23;68.84
16664;BME280;8445;51.270;9.434;2023-03-25T08:54:14;98296.34;;;13.51;68.17
16664;BME280;8445;51.270;9.434;2023-03-25T08:56:40;98301.31;;;13.46;67.37
16664;BME280;8445;51.270;9.434;2023-03-25T08:59:05;98295.63;;;13.41;67.27
16664;BME280;8445;51.270;9.434;2023-03-25T09:01:31;98297.78;;;13.37;67.58
16664;BME280;8445;51.270;9.434;2023-03-25T09:03:57;98300.53;;;13.70;67.24
16664;BME280;8445;51.270;9.434;2023-03-25T09:06:22;98302.34;;;13.61;66.99
16664;BME280;8445;51.270;9.434;2023-03-25T09:08:48;98306.47;;;13.47;67.10
16664;BME280;8445;51.270;9.434;2023-03-25T09:11:13;98299.66;;;13.45;67.56
16664;BME280;8445;51.270;9.434;2023-03-25T09:13:40;98301.13;;;13.39;67.09
16664;BME280;8445;51.270;9.434;2023-03-25T09:16:06;98305.47;;;13.57;66.98
16664;BME280;8445;51.270;9.434;2023-03-25T09:18:32;98297.91;;;13.87;67.08
16664;BME280;8445;51.270;9.434;2023-03-25T09:20:59;98307.06;;;14.17;66.30
16664;BME280;8445;51.270;9.434;2023-03-25T09:23:26;98300.56;;;14.53;65.99
16664;BME280;8445;51.270;9.434;2023-03-25T09:25:51;98303.88;;;14.72;64.05
16664;BME280;8445;51.270;9.434;2023-03-25T09:28:17;98297.56;;;14.23;63.04
16664;BME280;8445;51.270;9.434;2023-03-25T09:30:42;98313.19;;;13.85;63.30
16664;BME280;8445;51.270;9.434;2023-03-25T09:33:08;98298.53;;;13.64;64.08
16664;BME280;8445;51.270;9.434;2023-03-25T09:35:33;98295.91;;;13.89;63.77
16664;BME280;8445;51.270;9.434;2023-03-25T09:37:59;98315.84;;;14.18;63.85
16664;BME280;8445;51.270;9.434;2023-03-25T09:40:24;98314.53;;;14.22;62.81
16664;BME280;8445;51.270;9.434;2023-03-25T09:43:03;98319.66;;;13.90;62.32
16664;BME280;8445;51.270;9.434;2023-03-25T09:45:39;98310.38;;;14.11;62.31
16664;BME280;8445;51.270;9.434;2023-03-25T09:50:47;98319.78;;;14.96;63.53
16664;BME280;8445;51.270;9.434;2023-03-25T09:53:26;98324.47;;;14.86;60.57
16664;BME280;8445;51.270;9.434;2023-03-25T09:55:53;98328.84;;;14.71;63.86
16664;BME280;8445;51.270;9.434;2023-03-25T09:58:39;98338.09;;;14.83;63.36
16664;BME280;8445;51.270;9.434;2023-03-25T10:07:37;98346.13;;;14.66;60.90
16664;BME280;8445;51.270;9.434;2023-03-25T10:10:38;98345.09;;;14.92;54.84
16664;BME280;8445;51.270;9.434;2023-03-25T10:13:29;98347.41;;;14.87;61.45
16664;BME280;8445;51.270;9.434;2023-03-25T10:24:20;98337.41;;;15.06;62.83
16664;BME280;8445;51.270;9.434;2023-03-25T10:27:03;98338.75;;;15.02;53.20
16664;BME280;8445;51.270;9.434;2023-03-25T10:29:59;98342.38;;;15.09;56.46
16664;BME280;8445;51.270;9.434;2023-03-25T10:35:05;98335.81;;;14.55;60.23
16664;BME280;8445;51.270;9.434;2023-03-25T10:37:57;98344.31;;;14.26;61.08
16664;BME280;8445;51.270;9.434;2023-03-25T10:40:32;98333.16;;;14.14;61.04
16664;BME280;8445;51.270;9.434;2023-03-25T10:45:50;98337.28;;;13.75;60.97
16664;BME280;8445;51.270;9.434;2023-03-25T10:48:23;98334.13;;;13.88;61.36
16664;BME280;8445;51.270;9.434;2023-03-25T10:51:01;98328.16;;;14.19;60.29
16664;BME280;8445;51.270;9.434;2023-03-25T10:53:41;98327.84;;;14.38;61.71
16664;BME280;8445;51.270;9.434;2023-03-25T10:56:58;98319.19;;;14.28;60.78
16664;BME280;8445;51.270;9.434;2023-03-25T10:59:34;98320.84;;;14.21;60.11
16664;BME280;8445;51.270;9.434;2023-03-25T11:02:17;98310.88;;;14.48;56.85
16664;BME280;8445;51.270;9.434;2023-03-25T11:04:49;98313.50;;;14.73;60.81
16664;BME280;8445;51.270;9.434;2023-03-25T11:07:25;98315.09;;;14.99;56.20
16664;BME280;8445;51.270;9.434;2023-03-25T11:09:51;98315.53;;;15.19;60.96
16664;BME280;8445;51.270;9.434;2023-03-25T11:12:21;98314.81;;;15.33;60.82
16664;BME280;8445;51.270;9.434;2023-03-25T11:15:12;98318.94;;;15.67;60.63
16664;BME280;8445;51.270;9.434;2023-03-25T11:17:43;98324.34;;;15.91;59.51
16664;BME280;8445;51.270;9.434;2023-03-25T11:20:21;98318.44;;;15.72;58.27
16664;BME280;8445;51.270;9.434;2023-03-25T11:22:58;98321.28;;;15.39;59.45
16664;BME280;8445;51.270;9.434;2023-03-25T11:25:38;98314.44;;;15.05;58.96
16664;BME280;8445;51.270;9.434;2023-03-25T11:28:18;98315.81;;;14.84;58.66
16664;BME280;8445;51.270;9.434;2023-03-25T11:31:15;98318.72;;;15.14;58.05
16664;BME280;8445;51.270;9.434;2023-03-25T11:33:43;98312.94;;;15.42;60.67
16664;BME280;8445;51.270;9.434;2023-03-25T11:36:24;98305.78;;;15.74;58.77
16664;BME280;8445;51.270;9.434;2023-03-25T11:39:17;98310.19;;;15.59;57.99
16664;BME280;8445;51.270;9.434;2023-03-25T11:41:45;98308.81;;;15.63;59.47
16664;BME280;8445;51.270;9.434;2023-03-25T11:44:28;98314.50;;;15.60;57.64
16664;BME280;8445;51.270;9.434;2023-03-25T11:47:04;98309.88;;;15.53;53.82
16664;BME280;8445;51.270;9.434;2023-03-25T11:49:35;98322.47;;;15.68;58.16
16664;BME280;8445;51.270;9.434;2023-03-25T11:52:26;98294.41;;;15.80;53.01
16664;BME280;8445;51.270;9.434;2023-03-25T11:54:59;98295.19;;;15.57;55.64
16664;BME280;8445;51.270;9.434;2023-03-25T11:57:27;98302.56;;;15.47;56.99
16664;BME280;8445;51.270;9.434;2023-03-25T12:00:15;98296.28;;;15.40;56.86
16664;BME280;8445;51.270;9.434;2023-03-25T12:02:44;98301.59;;;15.71;57.92
16664;BME280;8445;51.270;9.434;2023-03-25T12:05:14;98303.44;;;15.71;57.20
16664;BME280;8445;51.270;9.434;2023-03-25T12:07:46;98294.41;;;15.80;56.15
16664;BME280;8445;51.270;9.434;2023-03-25T12:10:31;98280.50;;;15.62;54.01
16664;BME280;8445;51.270;9.434;2023-03-25T12:13:06;98283.88;;;15.24;55.92
16664;BME280;8445;51.270;9.434;2023-03-25T12:15:46;98283.53;;;14.87;52.89
16664;BME280;8445;51.270;9.434;2023-03-25T12:18:56;98282.75;;;14.70;54.81
16664;BME280;8445;51.270;9.434;2023-03-25T12:24:41;98278.97;;;14.23;53.01
16664;BME280;8445;51.270;9.434;2023-03-25T12:27:40;98295.38;;;14.43;52.50
16664;BME280;8445;51.270;9.434;2023-03-25T12:36:37;98285.41;;;14.70;55.80
16664;BME280;8445;51.270;9.434;2023-03-25T12:45:28;98281.44;;;15.46;50.62
16664;BME280;8445;51.270;9.434;2023-03-25T12:57:08;98290.41;;;15.21;52.73
16664;BME280;8445;51.270;9.434;2023-03-25T13:00:06;98293.09;;;15.13;54.27
16664;BME280;8445;51.270;9.434;2023-03-25T13:06:08;98284.56;;;15.18;55.35
16664;BME280;8445;51.270;9.434;2023-03-25T13:08:54;98278.13;;;15.12;54.74
16664;BME280;8445;51.270;9.434;2023-03-25T13:12:25;98276.88;;;14.83;54.11
16664;BME280;8445;51.270;9.434;2023-03-25T13:17:33;98282.56;;;14.63;55.11
16664;BME280;8445;51.270;9.434;2023-03-25T13:20:03;98269.59;;;14.68;54.39
16664;BME280;8445;51.270;9.434;2023-03-25T13:22:55;98272.41;;;14.67;54.74
16664;BME280;8445;51.270;9.434;2023-03-25T13:28:34;98273.94;;;14.61;54.71
16664;BME280;8445;51.270;9.434;2023-03-25T13:31:19;98272.97;;;14.37;53.59
16664;BME280;8445;51.270;9.434;2023-03-25T13:34:04;98295.59;;;14.08;52.15
16664;BME280;8445;51.270;9.434;2023-03-25T13:37:07;98299.56;;;13.88;54.00
16664;BME280;8445;51.270;9.434;2023-03-25T13:39:47;98319.03;;;14.05;55.18
16664;BME280;8445;51.270;9.434;2023-03-25T13:49:36;98284.06;;;15.22;55.09
16664;BME280;8445;51.270;9.434;2023-03-25T13:52:31;98280.47;;;15.38;54.32
16664;BME280;8445;51.270;9.434;2023-03-25T13:55:18;98276.47;;;15.43;54.26
16664;BME280;8445;51.270;9.434;2023-03-25T14:00:57;98274.00;;;15.01;53.86
16664;BME280;8445;51.270;9.434;2023-03-25T14:03:55;98284.72;;;14.60;50.92
16664;BME280;8445;51.270;9.434;2023-03-25T14:06:45;98279.94;;;14.55;53.29
16664;BME280;8445;51.270;9.434;2023-03-25T14:13:03;98276.94;;;14.50;54.61
16664;BME280;8445;51.270;9.434;2023-03-25T14:17:58;98285.94;;;14.49;53.70
16664;BME280;8445;51.270;9.434;2023-03-25T14:20:41;98284.88;;;14.75;54.61
16664;BME280;8445;51.270;9.434;2023-03-25T14:23:18;98285.56;;;14.68;53.70
16664;BME280;8445;51.270;9.434;2023-03-25T14:25:58;98283.41;;;14.47;53.17
16664;BME280;8445;51.270;9.434;2023-03-25T14:28:46;98280.63;;;14.32;52.16
16664;BME280;8445;51.270;9.434;2023-03-25T14:42:07;98291.25;;;14.16;53.84
16664;BME280;8445;51.270;9.434;2023-03-25T14:44:41;98287.25;;;14.36;53.83
16664;BME280;8445;51.270;9.434;2023-03-25T14:50:01;98273.63;;;14.31;52.91
16664;BME280;8445;51.270;9.434;2023-03-25T14:52:36;98270.84;;;14.16;52.85
16664;BME280;8445;51.270;9.434;2023-03-25T14:55:12;98264.50;;;14.26;51.66
16664;BME280;8445;51.270;9.434;2023-03-25T14:57:41;98253.69;;;14.19;53.01
16664;BME280;8445;51.270;9.434;2023-03-25T15:00:18;98254.53;;;14.11;53.18
16664;BME280;8445;51.270;9.434;2023-03-25T15:02:53;98243.09;;;13.94;52.89
16664;BME280;8445;51.270;9.434;2023-03-25T15:05:24;98246.75;;;13.93;53.07
16664;BME280;8445;51.270;9.434;2023-03-25T15:08:09;98247.22;;;13.88;52.88
16664;BME280;8445;51.270;9.434;2023-03-25T15:10:52;98256.06;;;13.97;52.61
16664;BME280;8445;51.270;9.434;2023-03-25T15:13:33;98241.72;;;14.31;53.58
16664;BME280;8445;51.270;9.434;2023-03-25T15:16:02;98226.41;;;14.33;53.39
16664;BME280;8445;51.270;9.434;2023-03-25T15:26:43;98242.47;;;13.24;52.86
16664;BME280;8445;51.270;9.434;2023-03-25T15:29:24;98261.66;;;13.01;53.21
16664;BME280;8445;51.270;9.434;2023-03-25T15:38:35;98293.50;;;12.40;53.75
16664;BME280;8445;51.270;9.434;2023-03-25T15:47:45;98353.41;;;11.79;57.36
16664;BME280;8445;51.270;9.434;2023-03-25T15:56:36;98343.16;;;11.48;57.62
16664;BME280;8445;51.270;9.434;2023-03-25T15:59:36;98331.78;;;11.37;56.89
16664;BME280;8445;51.270;9.434;2023-03-25T16:02:13;98329.94;;;11.10;56.83
16664;BME280;8445;51.270;9.434;2023-03-25T16:05:14;98321.84;;;10.83;57.79
16664;BME280;8445;51.270;9.434;2023-03-25T16:07:46;98327.88;;;10.66;55.84
16664;BME280;8445;51.270;9.434;2023-03-25T16:10:36;98323.63;;;10.45;56.02
16664;BME280;8445;51.270;9.434;2023-03-25T16:13:15;98314.84;;;10.15;57.17